Moodus, CT

2:51 AM EDT on July 27, 2016 (GMT -0400)
Windham | | Change Station

Elev 246 ft 41.74 °N, 72.18 °W | Updated 13 days ago

Clear
Clear
68 °F
Feels Like 68 °F
N
3
Wind Variable Wind from NNW
Gusts mph

Today
High -- | Low -- °F
--% Chance of Precip.
Yesterday
High -- | Low -- °F
Precip. -- in
Pressure 30.06 in
Visibility 10.0 miles
Clouds Clear
Dew Point 62 °F
Humidity 80%
Rainfall 0.00 in
Snow Depth Not available.
5:40 AM 8:11 PM
Last Quarter, 46% visible
METAR KIJD 131452Z AUTO 21008KT 10SM CLR 28/19 A3007 RMK AO2 SLP180 T02780189 58004
Pressure 30.06 in
Visibility 10.0 miles
Clouds Clear
Dew Point 62 °F
Humidity 80%
Rainfall 0.00 in
Snow Depth Not available.
5:40 AM 8:11 PM
Last Quarter, 46% visible
METAR KIJD 131452Z AUTO 21008KT 10SM CLR 28/19 A3007 RMK AO2 SLP180 T02780189 58004

10-Day Weather Forecast

Almanac

Astronomy

Jul. 27, 2016 Rise Set
Actual Time
Civil Twilight
Nautical Twilight
Astronomical Twilight
Moon
Length of Visible Light
Length of Day
Tomorrow will be .
, % of the Moon is Illuminated

Today's Extremes

State Highs State Lows

Community

WunderPhotos

Upload Photos

1,927,818 photos uploaded!

WunderBlog® & News

Nearby

Air Quality

  Air Quality AQ Index Pollutant
Not available.

Snow Depth

Station Depth Elevation

Earthquake Activity

City Distance Mag. Time & Date
Minimum magnitude displayed is 2.5.

Coastal Water Temperatures

Place Temperature

Stations

Nearby Weather Stations

Station Location Temp. Windchill Dew Point Humidity Wind Precip. Elev Updated Type
                   

Watches & Warnings

There are currently no watches in effect.